createdAt,value
2019-03-29T00:02:05.326Z,11.38
2019-03-29T00:04:38.642Z,11.73
2019-03-29T00:09:43.414Z,9.83
2019-03-29T00:14:48.043Z,10.35
2019-03-29T00:17:21.783Z,10.20
2019-03-29T00:19:54.906Z,9.95
2019-03-29T00:24:59.325Z,10.55
2019-03-29T00:30:03.935Z,9.95
2019-03-29T00:35:08.596Z,9.63
2019-03-29T00:37:53.008Z,9.90
2019-03-29T00:40:16.677Z,9.88
2019-03-29T00:42:50.020Z,10.18
2019-03-29T00:47:54.375Z,9.28
2019-03-29T00:50:27.559Z,9.48
2019-03-29T00:55:32.341Z,10.35
2019-03-29T00:58:05.637Z,10.58
2019-03-29T01:00:38.651Z,10.18
2019-03-29T01:03:11.706Z,9.73
2019-03-29T01:05:44.762Z,9.95
2019-03-29T01:08:18.035Z,10.45
2019-03-29T01:10:51.155Z,10.05
2019-03-29T01:15:55.761Z,8.63
2019-03-29T01:18:28.715Z,8.63
2019-03-29T01:21:02.100Z,8.03
2019-03-29T01:23:35.293Z,7.10
2019-03-29T01:26:08.626Z,7.37
2019-03-29T01:28:41.804Z,7.00
2019-03-29T01:33:46.396Z,9.10
2019-03-29T01:36:19.618Z,8.13
2019-03-29T01:38:52.917Z,8.58
2019-03-29T01:43:57.223Z,7.35
2019-03-29T01:46:30.246Z,7.35
2019-03-29T01:49:03.553Z,7.65
2019-03-29T01:51:36.717Z,8.18
2019-03-29T01:56:41.435Z,7.15
2019-03-29T02:01:46.040Z,7.47
2019-03-29T02:04:19.056Z,6.92
2019-03-29T02:06:51.514Z,7.03
2019-03-29T02:09:24.881Z,7.42
2019-03-29T02:11:57.982Z,7.03
2019-03-29T02:17:02.307Z,6.83
2019-03-29T02:19:35.367Z,7.22
2019-03-29T02:22:09.014Z,7.37
2019-03-29T02:24:42.238Z,7.25
2019-03-29T02:27:15.303Z,7.12
2019-03-29T02:29:48.230Z,7.22
2019-03-29T02:32:21.050Z,8.38
2019-03-29T02:34:54.179Z,8.55
2019-03-29T02:37:28.638Z,8.78
2019-03-29T02:40:02.202Z,7.62
2019-03-29T02:42:35.673Z,8.03
2019-03-29T02:45:08.973Z,8.20
2019-03-29T02:50:13.705Z,7.20
2019-03-29T02:52:46.815Z,7.53
2019-03-29T02:55:20.839Z,7.08
2019-03-29T02:57:54.255Z,7.17
2019-03-29T03:00:27.560Z,7.50
2019-03-29T03:03:00.935Z,7.22
2019-03-29T03:05:33.982Z,7.33
2019-03-29T03:08:06.948Z,7.75
2019-03-29T03:10:40.267Z,6.83
2019-03-29T03:13:13.279Z,7.15
2019-03-29T03:15:46.637Z,7.37
2019-03-29T03:18:19.505Z,7.20
2019-03-29T03:20:52.585Z,8.55
2019-03-29T03:25:56.816Z,7.33
2019-03-29T03:28:29.874Z,6.40
2019-03-29T03:31:03.051Z,6.30
2019-03-29T03:33:37.035Z,6.92
2019-03-29T03:36:10.356Z,6.55
2019-03-29T03:38:43.362Z,6.30
2019-03-29T03:41:16.588Z,7.25
2019-03-29T03:46:21.075Z,7.05
2019-03-29T03:48:54.681Z,7.25
2019-03-29T03:51:27.669Z,7.87
2019-03-29T03:54:01.280Z,6.92
2019-03-29T03:56:35.972Z,6.92
2019-03-29T03:59:09.328Z,6.70
2019-03-29T04:01:42.406Z,6.05
2019-03-29T04:06:47.172Z,5.90
2019-03-29T04:09:20.683Z,5.67
2019-03-29T04:11:53.733Z,7.72
2019-03-29T04:14:27.001Z,7.85
2019-03-29T04:17:00.275Z,8.05
2019-03-29T04:19:33.209Z,7.78
2019-03-29T04:22:06.655Z,6.90
2019-03-29T04:24:39.792Z,6.95
2019-03-29T04:29:45.020Z,6.40
2019-03-29T04:32:18.898Z,7.10
2019-03-29T04:34:52.496Z,7.33
2019-03-29T04:37:26.674Z,8.53
2019-03-29T04:40:07.851Z,7.50
2019-03-29T04:42:35.636Z,6.30
2019-03-29T04:45:09.510Z,7.65
2019-03-29T04:47:42.648Z,9.05
2019-03-29T04:50:16.377Z,9.85
2019-03-29T04:52:49.405Z,10.48
2019-03-29T04:55:22.477Z,13.70
2019-03-29T04:57:55.829Z,13.55
2019-03-29T05:00:29.093Z,10.55
2019-03-29T05:03:02.165Z,8.65
2019-03-29T05:05:35.787Z,8.10
2019-03-29T05:08:09.182Z,8.48
2019-03-29T05:10:43.497Z,8.45
2019-03-29T05:13:16.866Z,12.88
2019-03-29T05:15:51.111Z,9.80
2019-03-29T05:20:55.255Z,9.73
2019-03-29T05:23:29.494Z,13.05
2019-03-29T05:28:34.089Z,10.08
2019-03-29T05:31:07.172Z,11.60
2019-03-29T05:33:40.274Z,11.83
2019-03-29T05:36:13.478Z,13.00
2019-03-29T05:41:17.758Z,12.23
2019-03-29T05:43:51.296Z,10.00
2019-03-29T05:46:24.353Z,10.18
2019-03-29T05:48:57.281Z,9.80
2019-03-29T05:51:30.691Z,11.95
2019-03-29T05:54:03.777Z,10.85
2019-03-29T05:56:37.800Z,11.15
2019-03-29T05:59:10.817Z,13.10
2019-03-29T06:01:44.142Z,14.18
2019-03-29T06:06:48.325Z,14.20
2019-03-29T06:09:22.326Z,12.85
2019-03-29T06:11:55.784Z,11.75
2019-03-29T06:14:28.916Z,13.35
2019-03-29T06:17:02.162Z,14.80
2019-03-29T06:19:35.606Z,12.88
2019-03-29T06:24:40.295Z,10.53
2019-03-29T06:27:14.362Z,10.60
2019-03-29T06:29:47.590Z,13.85
2019-03-29T06:32:21.012Z,13.20
2019-03-29T06:34:54.410Z,12.18
2019-03-29T06:37:28.916Z,15.93
2019-03-29T06:40:03.171Z,18.75
2019-03-29T06:42:36.316Z,14.85
2019-03-29T06:45:10.044Z,11.97
2019-03-29T06:47:43.472Z,14.13
2019-03-29T06:50:16.601Z,13.10
2019-03-29T06:52:49.754Z,13.10
2019-03-29T06:57:54.392Z,12.63
2019-03-29T07:00:27.522Z,11.05
2019-03-29T07:05:32.298Z,13.10
2019-03-29T07:08:05.593Z,9.48
2019-03-29T07:10:38.730Z,9.35
2019-03-29T07:13:12.010Z,5.40
2019-03-29T07:18:16.094Z,7.10
2019-03-29T07:20:49.159Z,6.75
2019-03-29T07:23:22.589Z,6.45
2019-03-29T07:25:56.552Z,7.28
2019-03-29T07:28:30.623Z,7.42
2019-03-29T07:31:03.530Z,7.50
2019-03-29T07:33:36.776Z,6.83
2019-03-29T07:36:09.695Z,10.68
2019-03-29T07:38:43.120Z,7.12
2019-03-29T07:41:30.667Z,7.83
2019-03-29T07:43:53.111Z,6.92
2019-03-29T07:46:26.523Z,6.28
2019-03-29T07:49:00.140Z,8.45
2019-03-29T07:51:33.613Z,7.58
2019-03-29T07:54:07.122Z,7.67
2019-03-29T07:56:40.334Z,7.62
2019-03-29T07:59:13.760Z,7.47
2019-03-29T08:01:47.081Z,9.33
2019-03-29T08:04:21.816Z,11.30
2019-03-29T08:06:54.960Z,11.00
2019-03-29T08:09:28.692Z,6.22
2019-03-29T08:12:01.618Z,6.92
2019-03-29T08:14:36.133Z,9.30
2019-03-29T08:17:09.468Z,14.83
2019-03-29T08:19:42.989Z,12.37
2019-03-29T08:22:16.498Z,9.75
2019-03-29T08:24:49.684Z,7.75
2019-03-29T08:29:54.425Z,6.75
2019-03-29T08:32:28.025Z,6.67
2019-03-29T08:35:03.928Z,6.65
2019-03-29T08:37:36.966Z,6.28
2019-03-29T08:42:41.982Z,6.80
2019-03-29T08:47:46.221Z,7.47
2019-03-29T08:50:19.685Z,6.97
2019-03-29T08:52:53.391Z,6.45
2019-03-29T08:55:26.601Z,6.75
2019-03-29T08:58:00.087Z,6.50
2019-03-29T09:00:36.754Z,6.90
2019-03-29T09:03:09.816Z,5.92
2019-03-29T09:05:43.843Z,6.62
2019-03-29T09:08:17.193Z,6.60
2019-03-29T09:10:50.590Z,7.17
2019-03-29T09:13:24.073Z,6.70
2019-03-29T09:15:57.308Z,6.62
2019-03-29T09:21:02.162Z,6.90
2019-03-29T09:23:35.622Z,6.80
2019-03-29T09:26:08.648Z,6.87
2019-03-29T09:28:42.057Z,7.28
2019-03-29T09:31:15.915Z,6.22
2019-03-29T09:33:48.820Z,5.22
2019-03-29T09:36:21.361Z,5.25
2019-03-29T09:38:54.270Z,4.50
2019-03-29T09:41:27.393Z,5.47
2019-03-29T09:46:31.312Z,5.87
2019-03-29T09:51:36.296Z,5.83
2019-03-29T09:54:10.388Z,4.55
2019-03-29T09:56:43.678Z,6.75
2019-03-29T09:59:16.772Z,8.95
2019-03-29T10:04:21.580Z,6.15
2019-03-29T10:06:54.859Z,6.40
2019-03-29T10:11:59.818Z,5.83
2019-03-29T10:17:06.149Z,6.73
2019-03-29T10:19:38.631Z,7.12
2019-03-29T10:22:11.568Z,5.78
2019-03-29T10:24:47.432Z,9.10
2019-03-29T10:27:20.459Z,4.75
2019-03-29T10:29:53.609Z,5.85
2019-03-29T10:32:26.751Z,4.97
2019-03-29T10:37:30.665Z,6.80
2019-03-29T10:40:03.875Z,6.67
2019-03-29T10:42:40.097Z,6.85
2019-03-29T10:45:13.558Z,8.53
2019-03-29T10:47:46.737Z,9.10
2019-03-29T10:52:51.402Z,8.95
2019-03-29T10:55:24.709Z,7.28
2019-03-29T11:00:40.034Z,7.35
2019-03-29T11:03:13.850Z,7.20
2019-03-29T11:05:47.219Z,7.60
2019-03-29T11:08:20.626Z,9.35
2019-03-29T11:10:53.712Z,9.75
2019-03-29T11:13:26.555Z,10.55
2019-03-29T11:15:59.324Z,8.40
2019-03-29T11:18:32.254Z,6.97
2019-03-29T11:21:05.934Z,9.00
2019-03-29T11:23:38.904Z,7.25
2019-03-29T11:26:12.091Z,10.05
2019-03-29T11:31:16.619Z,11.40
2019-03-29T11:36:21.344Z,7.30
2019-03-29T11:38:54.989Z,5.72
2019-03-29T11:41:28.274Z,6.62
2019-03-29T11:46:33.013Z,14.98
2019-03-29T11:49:07.097Z,10.30
2019-03-29T11:51:40.299Z,7.87
2019-03-29T11:56:47.684Z,9.13
2019-03-29T11:59:20.123Z,11.97
2019-03-29T12:04:26.202Z,6.60
2019-03-29T12:06:59.633Z,5.60
2019-03-29T12:09:32.811Z,11.73
2019-03-29T12:14:37.306Z,7.85
2019-03-29T12:17:10.654Z,7.35
2019-03-29T12:19:43.611Z,7.12
2019-03-29T12:22:16.991Z,8.63
2019-03-29T12:24:50.082Z,7.90
2019-03-29T12:29:54.897Z,6.17
2019-03-29T12:32:28.152Z,7.40
2019-03-29T12:37:33.012Z,12.93
2019-03-29T12:40:06.502Z,5.10
2019-03-29T12:42:39.664Z,5.05
2019-03-29T12:47:44.669Z,9.30
2019-03-29T12:50:17.726Z,9.68
2019-03-29T12:52:50.743Z,8.48
2019-03-29T12:55:23.908Z,8.20
2019-03-29T12:57:57.294Z,8.83
2019-03-29T13:00:30.602Z,10.55
2019-03-29T13:03:03.714Z,11.48
2019-03-29T13:08:08.406Z,7.87
2019-03-29T13:13:14.838Z,7.85
2019-03-29T13:15:48.087Z,15.03
2019-03-29T13:18:21.306Z,8.48
2019-03-29T13:20:54.643Z,10.32
2019-03-29T13:23:27.953Z,9.73
2019-03-29T13:26:01.030Z,9.55
2019-03-29T13:28:34.456Z,10.40
2019-03-29T13:31:07.755Z,9.70
2019-03-29T13:33:41.145Z,10.80
2019-03-29T13:36:15.274Z,7.97
2019-03-29T13:38:48.517Z,9.48
2019-03-29T13:43:53.532Z,9.98
2019-03-29T13:46:26.718Z,11.40
2019-03-29T13:51:31.366Z,9.68
2019-03-29T13:54:04.360Z,10.55
2019-03-29T13:56:37.591Z,11.35
2019-03-29T13:59:11.584Z,11.55
2019-03-29T14:01:44.836Z,10.43
2019-03-29T14:06:49.539Z,9.30
2019-03-29T14:09:22.158Z,11.08
2019-03-29T14:11:55.604Z,7.87
2019-03-29T14:14:38.204Z,12.07
2019-03-29T14:17:03.850Z,9.78
2019-03-29T14:19:36.766Z,9.38
2019-03-29T14:22:10.116Z,9.90
2019-03-29T14:27:14.575Z,9.78
2019-03-29T14:29:49.002Z,7.42
2019-03-29T14:32:22.137Z,8.53
2019-03-29T14:34:54.756Z,9.53
2019-03-29T14:37:28.000Z,9.85
2019-03-29T14:40:01.191Z,9.85
2019-03-29T14:42:34.304Z,14.07
2019-03-29T14:47:43.225Z,13.32
2019-03-29T14:50:14.552Z,11.80
2019-03-29T14:52:47.728Z,13.68
2019-03-29T14:57:52.319Z,13.13
2019-03-29T15:03:09.897Z,10.25
2019-03-29T15:05:43.303Z,11.83
2019-03-29T15:08:16.396Z,11.80
2019-03-29T15:13:20.871Z,14.13
2019-03-29T15:15:54.241Z,10.63
2019-03-29T15:18:27.289Z,11.15
2019-03-29T15:21:00.867Z,11.83
2019-03-29T15:23:34.273Z,10.28
2019-03-29T15:26:07.402Z,13.78
2019-03-29T15:28:40.848Z,12.25
2019-03-29T15:31:13.499Z,9.75
2019-03-29T15:33:46.590Z,8.43
2019-03-29T15:36:19.709Z,9.80
2019-03-29T15:38:54.495Z,8.40
2019-03-29T15:41:27.813Z,8.30
2019-03-29T15:44:01.252Z,7.83
2019-03-29T15:46:34.401Z,11.00
2019-03-29T15:49:07.625Z,9.48
2019-03-29T15:51:40.582Z,7.92
2019-03-29T15:54:14.156Z,6.33
2019-03-29T15:56:47.529Z,8.00
2019-03-29T15:59:20.132Z,10.13
2019-03-29T16:01:53.451Z,7.80
2019-03-29T16:04:26.874Z,9.50
2019-03-29T16:09:31.366Z,8.15
2019-03-29T16:12:04.291Z,8.53
2019-03-29T16:14:37.477Z,6.97
2019-03-29T16:17:10.736Z,7.58
2019-03-29T16:19:43.777Z,7.53
2019-03-29T16:22:17.065Z,8.10
2019-03-29T16:27:24.859Z,9.40
2019-03-29T16:29:56.635Z,9.65
2019-03-29T16:32:30.186Z,12.18
2019-03-29T16:35:03.614Z,9.58
2019-03-29T16:37:36.648Z,8.13
2019-03-29T16:40:10.326Z,7.58
2019-03-29T16:42:43.754Z,8.50
2019-03-29T16:45:17.037Z,7.58
2019-03-29T16:50:21.330Z,8.50
2019-03-29T16:52:54.381Z,8.10
2019-03-29T16:55:27.700Z,10.23
2019-03-29T16:58:01.194Z,11.30
2019-03-29T17:00:34.426Z,12.45
2019-03-29T17:03:07.812Z,14.25
2019-03-29T17:08:13.453Z,12.18
2019-03-29T17:10:47.074Z,15.90
2019-03-29T17:13:20.591Z,10.40
2019-03-29T17:16:01.500Z,10.93
2019-03-29T17:18:29.993Z,13.93
2019-03-29T17:21:03.539Z,13.80
2019-03-29T17:23:36.384Z,18.02
2019-03-29T17:26:09.889Z,14.35
2019-03-29T17:28:42.885Z,14.93
2019-03-29T17:31:16.787Z,17.57
2019-03-29T17:33:49.996Z,17.12
2019-03-29T17:36:23.245Z,22.32
2019-03-29T17:38:56.323Z,22.87
2019-03-29T17:41:29.587Z,26.50
2019-03-29T17:46:33.768Z,74.55
2019-03-29T17:49:07.921Z,35.92
2019-03-29T17:51:41.079Z,34.67
2019-03-29T17:56:46.004Z,67.75
2019-03-29T18:01:50.689Z,85.45
2019-03-29T18:04:23.679Z,56.68
2019-03-29T18:06:57.767Z,55.48
2019-03-29T18:09:30.978Z,52.58
2019-03-29T18:12:04.444Z,52.62
2019-03-29T18:14:37.592Z,54.50
2019-03-29T18:17:11.035Z,53.68
2019-03-29T18:19:44.383Z,51.92
2019-03-29T18:22:17.202Z,33.90
2019-03-29T18:24:50.224Z,39.67
2019-03-29T18:27:23.458Z,36.77
2019-03-29T18:32:28.342Z,31.35
2019-03-29T18:35:01.744Z,31.35
2019-03-29T18:37:35.388Z,33.23
2019-03-29T18:40:10.212Z,34.73
2019-03-29T18:42:43.457Z,31.37
2019-03-29T18:47:48.470Z,70.17
2019-03-29T18:50:21.649Z,58.80
2019-03-29T18:52:54.965Z,75.62
2019-03-29T18:57:59.230Z,80.12
2019-03-29T19:00:33.920Z,69.20
2019-03-29T19:03:07.700Z,56.75
2019-03-29T19:05:41.131Z,62.85
2019-03-29T19:08:14.038Z,94.10
2019-03-29T19:10:47.327Z,101.67
2019-03-29T19:13:20.518Z,120.50
2019-03-29T19:18:24.958Z,53.25
2019-03-29T19:20:58.242Z,43.98
2019-03-29T19:26:02.606Z,38.45
2019-03-29T19:28:35.899Z,32.00
2019-03-29T19:33:40.949Z,32.98
2019-03-29T19:36:14.134Z,34.75
2019-03-29T19:38:48.530Z,32.45
2019-03-29T19:41:22.040Z,32.78
2019-03-29T19:43:55.985Z,34.55
2019-03-29T19:46:29.332Z,33.23
2019-03-29T19:49:02.556Z,33.38
2019-03-29T19:54:08.034Z,35.33
2019-03-29T19:56:41.579Z,40.45
2019-03-29T19:59:14.668Z,37.48
2019-03-29T20:01:47.959Z,43.68
2019-03-29T20:04:20.415Z,46.60
2019-03-29T20:06:53.743Z,52.55
2019-03-29T20:11:58.432Z,25.65
2019-03-29T20:17:03.024Z,15.72
2019-03-29T20:19:36.210Z,27.32
2019-03-29T20:22:09.480Z,33.02
2019-03-29T20:27:13.983Z,29.02
2019-03-29T20:29:47.050Z,38.60
2019-03-29T20:32:20.229Z,53.70
2019-03-29T20:37:25.157Z,45.67
2019-03-29T20:42:29.779Z,51.77
2019-03-29T20:47:41.868Z,48.17
2019-03-29T20:50:09.432Z,49.50
2019-03-29T20:52:42.721Z,47.60
2019-03-29T20:57:47.213Z,45.73
2019-03-29T21:02:53.110Z,45.63
2019-03-29T21:05:26.482Z,42.95
2019-03-29T21:08:00.699Z,43.13
2019-03-29T21:10:34.083Z,41.20
2019-03-29T21:15:40.054Z,27.67
2019-03-29T21:18:13.031Z,32.85
2019-03-29T21:20:46.518Z,42.40
2019-03-29T21:23:19.550Z,43.38
2019-03-29T21:25:52.952Z,32.28
2019-03-29T21:28:26.465Z,35.08
2019-03-29T21:30:59.617Z,36.48
2019-03-29T21:33:32.904Z,31.65
2019-03-29T21:36:05.976Z,30.15
2019-03-29T21:38:39.344Z,25.50
2019-03-29T21:41:13.028Z,26.82
2019-03-29T21:43:46.203Z,22.77
2019-03-29T21:46:19.679Z,28.02
2019-03-29T21:48:52.679Z,29.60
2019-03-29T21:51:26.323Z,27.10
2019-03-29T21:53:59.189Z,32.15
2019-03-29T21:56:33.386Z,27.87
2019-03-29T21:59:06.527Z,28.50
2019-03-29T22:04:11.163Z,23.10
2019-03-29T22:06:44.394Z,22.98
2019-03-29T22:09:17.474Z,25.27
2019-03-29T22:11:50.441Z,20.37
2019-03-29T22:14:23.489Z,19.75
2019-03-29T22:16:56.625Z,16.70
2019-03-29T22:19:30.026Z,19.25
2019-03-29T22:22:03.470Z,18.62
2019-03-29T22:24:36.998Z,15.28
2019-03-29T22:27:10.360Z,15.95
2019-03-29T22:32:46.497Z,13.58
2019-03-29T22:35:21.044Z,14.33
2019-03-29T22:37:54.642Z,16.37
2019-03-29T22:40:27.642Z,16.05
2019-03-29T22:43:00.920Z,17.35
2019-03-29T22:45:33.924Z,18.48
2019-03-29T22:48:07.150Z,17.45
2019-03-29T22:53:11.750Z,15.53
2019-03-29T22:58:22.588Z,15.48
2019-03-29T23:01:00.030Z,16.87
2019-03-29T23:03:33.195Z,14.20
2019-03-29T23:06:06.377Z,14.28
2019-03-29T23:08:39.398Z,14.68
2019-03-29T23:11:14.140Z,15.63
2019-03-29T23:13:47.309Z,15.78
2019-03-29T23:16:20.701Z,16.00
2019-03-29T23:19:05.793Z,15.98
2019-03-29T23:21:29.733Z,17.25
2019-03-29T23:24:02.096Z,16.67
2019-03-29T23:26:35.273Z,17.40
2019-03-29T23:29:08.819Z,17.98
2019-03-29T23:31:41.508Z,24.75
2019-03-29T23:34:15.060Z,18.95
2019-03-29T23:36:48.250Z,29.25
2019-03-29T23:39:21.708Z,18.87
2019-03-29T23:41:54.844Z,15.35
2019-03-29T23:44:27.995Z,15.30
2019-03-29T23:47:01.125Z,14.98
2019-03-29T23:49:34.162Z,13.88
2019-03-29T23:52:07.503Z,13.93
2019-03-29T23:54:40.051Z,14.50
2019-03-29T23:57:13.081Z,13.03
2019-03-29T23:59:46.327Z,13.22
